sensor_id;sensor_type;location;lat;lon;timestamp;temperature;humidity
24382;DHT22;12502;50.678;7.172;2023-08-30T00:04:01;15.20;99.90
24382;DHT22;12502;50.678;7.172;2023-08-30T00:09:03;15.30;99.90
24382;DHT22;12502;50.678;7.172;2023-08-30T00:14:05;15.40;99.90
24382;DHT22;12502;50.678;7.172;2023-08-30T00:19:07;15.30;99.90
24382;DHT22;12502;50.678;7.172;2023-08-30T00:24:09;15.20;99.90
24382;DHT22;12502;50.678;7.172;2023-08-30T00:29:11;15.10;99.90
24382;DHT22;12502;50.678;7.172;2023-08-30T00:34:13;15.00;99.90
24382;DHT22;12502;50.678;7.172;2023-08-30T00:39:15;14.90;99.90
24382;DHT22;12502;50.678;7.172;2023-08-30T00:44:17;14.80;99.90
24382;DHT22;12502;50.678;7.172;2023-08-30T00:49:18;14.80;99.90
24382;DHT22;12502;50.678;7.172;2023-08-30T00:54:20;14.80;99.90
24382;DHT22;12502;50.678;7.172;2023-08-30T00:59:22;14.80;99.90
24382;DHT22;12502;50.678;7.172;2023-08-30T01:04:27;14.70;99.90
24382;DHT22;12502;50.678;7.172;2023-08-30T01:09:38;14.70;99.90
24382;DHT22;12502;50.678;7.172;2023-08-30T01:19:43;14.60;99.90
24382;DHT22;12502;50.678;7.172;2023-08-30T01:30:15;14.60;99.90
24382;DHT22;12502;50.678;7.172;2023-08-30T01:35:17;14.60;99.90
24382;DHT22;12502;50.678;7.172;2023-08-30T01:40:20;14.60;99.90
24382;DHT22;12502;50.678;7.172;2023-08-30T01:45:22;14.50;99.90
24382;DHT22;12502;50.678;7.172;2023-08-30T01:50:24;14.60;99.90
24382;DHT22;12502;50.678;7.172;2023-08-30T01:55:26;14.70;99.90
24382;DHT22;12502;50.678;7.172;2023-08-30T02:00:29;14.70;99.90
24382;DHT22;12502;50.678;7.172;2023-08-30T02:05:31;14.60;99.90
24382;DHT22;12502;50.678;7.172;2023-08-30T02:10:34;14.50;99.90
24382;DHT22;12502;50.678;7.172;2023-08-30T02:15:36;14.70;99.90
24382;DHT22;12502;50.678;7.172;2023-08-30T02:20:39;14.60;99.90
24382;DHT22;12502;50.678;7.172;2023-08-30T02:25:40;14.60;99.90
24382;DHT22;12502;50.678;7.172;2023-08-30T02:30:43;14.70;99.90
24382;DHT22;12502;50.678;7.172;2023-08-30T02:35:44;14.60;99.90
24382;DHT22;12502;50.678;7.172;2023-08-30T02:40:46;14.60;99.90
24382;DHT22;12502;50.678;7.172;2023-08-30T02:45:48;14.60;99.90
24382;DHT22;12502;50.678;7.172;2023-08-30T02:50:49;14.60;99.90
24382;DHT22;12502;50.678;7.172;2023-08-30T02:55:51;14.60;99.90
24382;DHT22;12502;50.678;7.172;2023-08-30T03:00:53;14.50;99.90
24382;DHT22;12502;50.678;7.172;2023-08-30T03:05:54;14.60;99.90
24382;DHT22;12502;50.678;7.172;2023-08-30T03:10:56;14.70;99.90
24382;DHT22;12502;50.678;7.172;2023-08-30T03:15:58;14.80;99.90
24382;DHT22;12502;50.678;7.172;2023-08-30T03:21:00;14.80;99.90
24382;DHT22;12502;50.678;7.172;2023-08-30T03:26:12;14.80;99.90
24382;DHT22;12502;50.678;7.172;2023-08-30T03:31:15;14.70;99.90
24382;DHT22;12502;50.678;7.172;2023-08-30T03:36:17;14.60;99.90
24382;DHT22;12502;50.678;7.172;2023-08-30T03:41:19;14.50;99.90
24382;DHT22;12502;50.678;7.172;2023-08-30T03:46:22;14.50;99.90
24382;DHT22;12502;50.678;7.172;2023-08-30T03:51:24;14.50;99.90
24382;DHT22;12502;50.678;7.172;2023-08-30T03:56:25;14.50;99.90
24382;DHT22;12502;50.678;7.172;2023-08-30T04:01:27;14.30;99.90
24382;DHT22;12502;50.678;7.172;2023-08-30T04:06:29;14.30;99.90
24382;DHT22;12502;50.678;7.172;2023-08-30T04:11:30;14.30;99.90
24382;DHT22;12502;50.678;7.172;2023-08-30T04:16:32;14.20;99.90
24382;DHT22;12502;50.678;7.172;2023-08-30T04:21:34;14.10;99.90
24382;DHT22;12502;50.678;7.172;2023-08-30T04:26:36;14.10;99.90
24382;DHT22;12502;50.678;7.172;2023-08-30T04:31:38;14.10;99.90
24382;DHT22;12502;50.678;7.172;2023-08-30T04:36:40;14.00;99.90
24382;DHT22;12502;50.678;7.172;2023-08-30T04:41:41;13.90;99.90
24382;DHT22;12502;50.678;7.172;2023-08-30T04:46:43;13.90;99.90
24382;DHT22;12502;50.678;7.172;2023-08-30T04:51:45;13.90;99.90
24382;DHT22;12502;50.678;7.172;2023-08-30T04:56:46;13.80;99.90
24382;DHT22;12502;50.678;7.172;2023-08-30T05:01:48;13.90;99.90
24382;DHT22;12502;50.678;7.172;2023-08-30T05:06:50;13.80;99.90
24382;DHT22;12502;50.678;7.172;2023-08-30T05:11:51;13.70;99.90
24382;DHT22;12502;50.678;7.172;2023-08-30T05:16:53;13.70;99.90
24382;DHT22;12502;50.678;7.172;2023-08-30T05:21:55;13.70;99.90
24382;DHT22;12502;50.678;7.172;2023-08-30T05:26:57;13.70;99.90
24382;DHT22;12502;50.678;7.172;2023-08-30T05:31:58;13.80;99.90
24382;DHT22;12502;50.678;7.172;2023-08-30T05:37:00;13.70;99.90
24382;DHT22;12502;50.678;7.172;2023-08-30T05:42:01;13.80;99.90
24382;DHT22;12502;50.678;7.172;2023-08-30T05:47:04;13.60;99.90
24382;DHT22;12502;50.678;7.172;2023-08-30T05:52:06;13.70;99.90
24382;DHT22;12502;50.678;7.172;2023-08-30T05:57:07;13.80;99.90
24382;DHT22;12502;50.678;7.172;2023-08-30T06:02:09;13.80;99.90
24382;DHT22;12502;50.678;7.172;2023-08-30T06:07:11;13.90;99.90
24382;DHT22;12502;50.678;7.172;2023-08-30T06:12:13;13.90;99.90
24382;DHT22;12502;50.678;7.172;2023-08-30T06:17:15;14.00;99.90
24382;DHT22;12502;50.678;7.172;2023-08-30T06:22:16;14.00;99.90
24382;DHT22;12502;50.678;7.172;2023-08-30T06:27:19;14.00;99.90
24382;DHT22;12502;50.678;7.172;2023-08-30T06:32:21;14.00;99.90
24382;DHT22;12502;50.678;7.172;2023-08-30T06:37:23;14.10;99.90
24382;DHT22;12502;50.678;7.172;2023-08-30T06:42:25;14.20;99.90
24382;DHT22;12502;50.678;7.172;2023-08-30T06:47:28;14.20;99.90
24382;DHT22;12502;50.678;7.172;2023-08-30T06:52:29;14.20;99.90
24382;DHT22;12502;50.678;7.172;2023-08-30T06:57:31;14.20;99.90
24382;DHT22;12502;50.678;7.172;2023-08-30T07:02:33;14.40;99.90
24382;DHT22;12502;50.678;7.172;2023-08-30T07:07:35;14.50;99.90
24382;DHT22;12502;50.678;7.172;2023-08-30T07:12:37;14.60;99.90
24382;DHT22;12502;50.678;7.172;2023-08-30T07:17:39;14.80;99.90
24382;DHT22;12502;50.678;7.172;2023-08-30T07:22:53;15.10;99.90
24382;DHT22;12502;50.678;7.172;2023-08-30T07:27:55;15.20;99.90
24382;DHT22;12502;50.678;7.172;2023-08-30T07:32:56;15.50;99.90
24382;DHT22;12502;50.678;7.172;2023-08-30T07:37:58;15.50;99.90
24382;DHT22;12502;50.678;7.172;2023-08-30T07:42:59;15.70;99.90
24382;DHT22;12502;50.678;7.172;2023-08-30T07:48:01;15.90;99.90
24382;DHT22;12502;50.678;7.172;2023-08-30T07:53:03;16.20;99.90
24382;DHT22;12502;50.678;7.172;2023-08-30T07:58:04;16.40;99.90
24382;DHT22;12502;50.678;7.172;2023-08-30T08:03:06;16.60;99.90
24382;DHT22;12502;50.678;7.172;2023-08-30T08:08:08;16.90;99.90
24382;DHT22;12502;50.678;7.172;2023-08-30T08:13:12;17.20;99.90
24382;DHT22;12502;50.678;7.172;2023-08-30T08:18:17;17.40;99.90
24382;DHT22;12502;50.678;7.172;2023-08-30T08:23:19;17.50;99.90
24382;DHT22;12502;50.678;7.172;2023-08-30T08:28:20;17.90;99.90
24382;DHT22;12502;50.678;7.172;2023-08-30T08:33:22;18.00;99.90
24382;DHT22;12502;50.678;7.172;2023-08-30T08:38:25;18.10;99.90
24382;DHT22;12502;50.678;7.172;2023-08-30T08:43:27;18.30;99.90
24382;DHT22;12502;50.678;7.172;2023-08-30T08:48:29;18.30;99.90
24382;DHT22;12502;50.678;7.172;2023-08-30T08:53:33;18.60;99.90
24382;DHT22;12502;50.678;7.172;2023-08-30T08:58:38;18.90;99.90
24382;DHT22;12502;50.678;7.172;2023-08-30T09:03:40;18.80;99.90
24382;DHT22;12502;50.678;7.172;2023-08-30T09:08:41;19.10;99.90
24382;DHT22;12502;50.678;7.172;2023-08-30T09:13:43;18.90;99.90
24382;DHT22;12502;50.678;7.172;2023-08-30T09:18:56;19.10;99.90
24382;DHT22;12502;50.678;7.172;2023-08-30T09:24:11;19.20;99.90
24382;DHT22;12502;50.678;7.172;2023-08-30T09:29:13;19.40;99.90
24382;DHT22;12502;50.678;7.172;2023-08-30T09:34:16;19.70;99.90
24382;DHT22;12502;50.678;7.172;2023-08-30T09:39:18;19.50;99.90
24382;DHT22;12502;50.678;7.172;2023-08-30T09:44:20;19.60;99.90
24382;DHT22;12502;50.678;7.172;2023-08-30T09:49:23;19.40;99.90
24382;DHT22;12502;50.678;7.172;2023-08-30T09:54:25;19.50;99.90
24382;DHT22;12502;50.678;7.172;2023-08-30T09:59:40;19.50;99.90
24382;DHT22;12502;50.678;7.172;2023-08-30T10:04:42;19.20;99.90
24382;DHT22;12502;50.678;7.172;2023-08-30T10:09:45;19.20;99.90
24382;DHT22;12502;50.678;7.172;2023-08-30T10:15:06;19.50;99.90
24382;DHT22;12502;50.678;7.172;2023-08-30T10:20:08;19.40;99.90
24382;DHT22;12502;50.678;7.172;2023-08-30T10:25:11;19.50;99.90
24382;DHT22;12502;50.678;7.172;2023-08-30T10:30:14;19.50;99.90
24382;DHT22;12502;50.678;7.172;2023-08-30T10:35:17;19.30;99.90
24382;DHT22;12502;50.678;7.172;2023-08-30T10:40:19;19.20;99.90
24382;DHT22;12502;50.678;7.172;2023-08-30T10:45:23;19.10;99.90
24382;DHT22;12502;50.678;7.172;2023-08-30T10:50:30;19.20;99.90
24382;DHT22;12502;50.678;7.172;2023-08-30T10:55:32;19.10;99.90
24382;DHT22;12502;50.678;7.172;2023-08-30T11:00:34;18.80;99.90
24382;DHT22;12502;50.678;7.172;2023-08-30T11:05:37;18.70;99.90
24382;DHT22;12502;50.678;7.172;2023-08-30T11:10:41;18.80;99.90
24382;DHT22;12502;50.678;7.172;2023-08-30T11:15:44;18.80;99.90
24382;DHT22;12502;50.678;7.172;2023-08-30T11:20:45;19.10;99.90
24382;DHT22;12502;50.678;7.172;2023-08-30T11:25:51;19.10;99.90
24382;DHT22;12502;50.678;7.172;2023-08-30T11:30:53;19.30;99.90
24382;DHT22;12502;50.678;7.172;2023-08-30T11:35:54;19.70;99.90
24382;DHT22;12502;50.678;7.172;2023-08-30T11:40:56;19.50;99.90
24382;DHT22;12502;50.678;7.172;2023-08-30T11:45:58;19.60;99.90
24382;DHT22;12502;50.678;7.172;2023-08-30T11:51:00;19.50;99.90
24382;DHT22;12502;50.678;7.172;2023-08-30T11:56:01;19.50;99.90
24382;DHT22;12502;50.678;7.172;2023-08-30T12:01:04;19.40;99.90
24382;DHT22;12502;50.678;7.172;2023-08-30T12:06:10;19.20;99.90
24382;DHT22;12502;50.678;7.172;2023-08-30T12:11:17;19.10;99.90
24382;DHT22;12502;50.678;7.172;2023-08-30T12:16:19;18.30;99.90
24382;DHT22;12502;50.678;7.172;2023-08-30T12:21:22;17.70;99.90
24382;DHT22;12502;50.678;7.172;2023-08-30T12:26:31;17.30;99.90
24382;DHT22;12502;50.678;7.172;2023-08-30T12:31:32;17.00;99.90
24382;DHT22;12502;50.678;7.172;2023-08-30T12:36:34;17.10;99.90
24382;DHT22;12502;50.678;7.172;2023-08-30T12:41:36;16.90;99.90
24382;DHT22;12502;50.678;7.172;2023-08-30T12:46:38;17.00;99.90
24382;DHT22;12502;50.678;7.172;2023-08-30T12:51:39;16.60;99.90
24382;DHT22;12502;50.678;7.172;2023-08-30T12:56:41;16.40;99.90
24382;DHT22;12502;50.678;7.172;2023-08-30T13:01:43;16.30;99.90
24382;DHT22;12502;50.678;7.172;2023-08-30T13:06:44;16.20;99.90
24382;DHT22;12502;50.678;7.172;2023-08-30T13:11:46;16.10;99.90
24382;DHT22;12502;50.678;7.172;2023-08-30T13:16:48;16.30;99.90
24382;DHT22;12502;50.678;7.172;2023-08-30T13:21:49;16.40;99.90
24382;DHT22;12502;50.678;7.172;2023-08-30T13:26:51;16.40;99.90
24382;DHT22;12502;50.678;7.172;2023-08-30T13:31:52;16.30;99.90
24382;DHT22;12502;50.678;7.172;2023-08-30T13:36:54;16.20;99.90
24382;DHT22;12502;50.678;7.172;2023-08-30T13:41:56;16.20;99.90
24382;DHT22;12502;50.678;7.172;2023-08-30T13:46:57;16.10;99.90
24382;DHT22;12502;50.678;7.172;2023-08-30T13:51:59;16.10;99.90
24382;DHT22;12502;50.678;7.172;2023-08-30T13:57:00;16.20;99.90
24382;DHT22;12502;50.678;7.172;2023-08-30T14:02:03;16.30;99.90
24382;DHT22;12502;50.678;7.172;2023-08-30T14:07:05;16.20;99.90
24382;DHT22;12502;50.678;7.172;2023-08-30T14:12:07;16.20;99.90
24382;DHT22;12502;50.678;7.172;2023-08-30T14:17:09;16.40;99.90
24382;DHT22;12502;50.678;7.172;2023-08-30T14:22:10;16.40;99.90
24382;DHT22;12502;50.678;7.172;2023-08-30T14:27:12;16.50;99.90
24382;DHT22;12502;50.678;7.172;2023-08-30T14:32:14;16.60;99.90
24382;DHT22;12502;50.678;7.172;2023-08-30T14:37:15;16.70;99.90
24382;DHT22;12502;50.678;7.172;2023-08-30T14:42:17;16.50;99.90
24382;DHT22;12502;50.678;7.172;2023-08-30T14:47:19;16.50;99.90
24382;DHT22;12502;50.678;7.172;2023-08-30T14:52:22;16.40;99.90
24382;DHT22;12502;50.678;7.172;2023-08-30T14:57:23;15.10;99.90
24382;DHT22;12502;50.678;7.172;2023-08-30T15:02:26;14.80;99.90
24382;DHT22;12502;50.678;7.172;2023-08-30T15:07:28;14.90;99.90
24382;DHT22;12502;50.678;7.172;2023-08-30T15:12:29;14.60;99.90
24382;DHT22;12502;50.678;7.172;2023-08-30T15:17:31;14.60;99.90
24382;DHT22;12502;50.678;7.172;2023-08-30T15:22:33;14.70;99.90
24382;DHT22;12502;50.678;7.172;2023-08-30T15:27:35;14.70;99.90
24382;DHT22;12502;50.678;7.172;2023-08-30T15:32:37;14.70;99.90
24382;DHT22;12502;50.678;7.172;2023-08-30T15:37:38;14.80;99.90
24382;DHT22;12502;50.678;7.172;2023-08-30T15:42:40;14.90;99.90
24382;DHT22;12502;50.678;7.172;2023-08-30T15:47:41;15.10;99.90
24382;DHT22;12502;50.678;7.172;2023-08-30T15:52:43;15.40;99.90
24382;DHT22;12502;50.678;7.172;2023-08-30T15:57:45;15.50;99.90
24382;DHT22;12502;50.678;7.172;2023-08-30T16:02:46;15.50;99.90
24382;DHT22;12502;50.678;7.172;2023-08-30T16:07:48;15.70;99.90
24382;DHT22;12502;50.678;7.172;2023-08-30T16:12:50;15.50;99.90
24382;DHT22;12502;50.678;7.172;2023-08-30T16:17:52;15.50;99.90
24382;DHT22;12502;50.678;7.172;2023-08-30T16:22:54;15.50;99.90
24382;DHT22;12502;50.678;7.172;2023-08-30T16:27:55;15.30;99.90
24382;DHT22;12502;50.678;7.172;2023-08-30T16:32:57;15.30;99.90
24382;DHT22;12502;50.678;7.172;2023-08-30T16:37:59;15.30;99.90
24382;DHT22;12502;50.678;7.172;2023-08-30T16:43:00;15.30;99.90
24382;DHT22;12502;50.678;7.172;2023-08-30T16:48:02;15.20;99.90
24382;DHT22;12502;50.678;7.172;2023-08-30T16:53:08;15.10;99.90
24382;DHT22;12502;50.678;7.172;2023-08-30T16:58:09;15.00;99.90
24382;DHT22;12502;50.678;7.172;2023-08-30T17:03:11;14.90;99.90
24382;DHT22;12502;50.678;7.172;2023-08-30T17:08:13;14.80;99.90
24382;DHT22;12502;50.678;7.172;2023-08-30T17:13:15;14.90;99.90
24382;DHT22;12502;50.678;7.172;2023-08-30T17:18:17;14.90;99.90
24382;DHT22;12502;50.678;7.172;2023-08-30T17:23:19;15.00;99.90
24382;DHT22;12502;50.678;7.172;2023-08-30T17:28:23;15.00;99.90
24382;DHT22;12502;50.678;7.172;2023-08-30T17:33:25;14.90;99.90
24382;DHT22;12502;50.678;7.172;2023-08-30T17:38:26;15.00;99.90
24382;DHT22;12502;50.678;7.172;2023-08-30T17:43:29;15.10;99.90
24382;DHT22;12502;50.678;7.172;2023-08-30T17:48:31;15.00;99.90
24382;DHT22;12502;50.678;7.172;2023-08-30T17:53:34;15.00;99.90
24382;DHT22;12502;50.678;7.172;2023-08-30T17:58:36;15.10;99.90
24382;DHT22;12502;50.678;7.172;2023-08-30T18:03:38;15.00;99.90
24382;DHT22;12502;50.678;7.172;2023-08-30T18:08:43;15.00;99.90
24382;DHT22;12502;50.678;7.172;2023-08-30T18:13:46;15.00;99.90
24382;DHT22;12502;50.678;7.172;2023-08-30T18:18:48;15.00;99.90
24382;DHT22;12502;50.678;7.172;2023-08-30T18:29:28;15.10;99.90
24382;DHT22;12502;50.678;7.172;2023-08-30T18:34:30;15.00;99.90
24382;DHT22;12502;50.678;7.172;2023-08-30T18:39:33;15.00;99.90
24382;DHT22;12502;50.678;7.172;2023-08-30T18:44:35;15.00;99.90
24382;DHT22;12502;50.678;7.172;2023-08-30T18:49:39;14.90;99.90
24382;DHT22;12502;50.678;7.172;2023-08-30T18:54:40;14.80;99.90
24382;DHT22;12502;50.678;7.172;2023-08-30T18:59:45;14.80;99.90
24382;DHT22;12502;50.678;7.172;2023-08-30T19:04:49;14.70;99.90
24382;DHT22;12502;50.678;7.172;2023-08-30T19:09:51;14.80;99.90
24382;DHT22;12502;50.678;7.172;2023-08-30T19:14:52;15.00;99.90
24382;DHT22;12502;50.678;7.172;2023-08-30T19:19:54;14.80;99.90
24382;DHT22;12502;50.678;7.172;2023-08-30T19:24:56;14.60;99.90
24382;DHT22;12502;50.678;7.172;2023-08-30T19:29:57;14.50;99.90
24382;DHT22;12502;50.678;7.172;2023-08-30T19:34:59;14.50;99.90
24382;DHT22;12502;50.678;7.172;2023-08-30T19:40:01;14.40;99.90
24382;DHT22;12502;50.678;7.172;2023-08-30T19:45:06;14.40;99.90
24382;DHT22;12502;50.678;7.172;2023-08-30T19:50:09;14.50;99.90
24382;DHT22;12502;50.678;7.172;2023-08-30T19:55:10;14.30;99.90
24382;DHT22;12502;50.678;7.172;2023-08-30T20:00:12;14.10;99.90
24382;DHT22;12502;50.678;7.172;2023-08-30T20:05:14;14.10;99.90
24382;DHT22;12502;50.678;7.172;2023-08-30T20:10:17;14.00;99.90
24382;DHT22;12502;50.678;7.172;2023-08-30T20:15:19;13.90;99.90
24382;DHT22;12502;50.678;7.172;2023-08-30T20:20:22;14.10;99.90
24382;DHT22;12502;50.678;7.172;2023-08-30T20:25:23;14.00;99.90
24382;DHT22;12502;50.678;7.172;2023-08-30T20:30:25;14.00;99.90
24382;DHT22;12502;50.678;7.172;2023-08-30T20:35:27;14.00;99.90
24382;DHT22;12502;50.678;7.172;2023-08-30T20:40:29;13.80;99.90
24382;DHT22;12502;50.678;7.172;2023-08-30T20:45:30;13.70;99.90
24382;DHT22;12502;50.678;7.172;2023-08-30T20:50:33;13.70;99.90
24382;DHT22;12502;50.678;7.172;2023-08-30T20:55:42;13.70;99.90
24382;DHT22;12502;50.678;7.172;2023-08-30T21:00:45;13.60;99.90
24382;DHT22;12502;50.678;7.172;2023-08-30T21:05:54;13.60;99.90
24382;DHT22;12502;50.678;7.172;2023-08-30T21:10:56;13.60;99.90
24382;DHT22;12502;50.678;7.172;2023-08-30T21:15:58;13.60;99.90
24382;DHT22;12502;50.678;7.172;2023-08-30T21:20:59;13.60;99.90
24382;DHT22;12502;50.678;7.172;2023-08-30T21:26:02;13.50;99.90
24382;DHT22;12502;50.678;7.172;2023-08-30T21:31:06;13.50;99.90
24382;DHT22;12502;50.678;7.172;2023-08-30T21:36:10;13.50;99.90
24382;DHT22;12502;50.678;7.172;2023-08-30T21:41:12;13.40;99.90
24382;DHT22;12502;50.678;7.172;2023-08-30T21:46:13;13.40;99.90
24382;DHT22;12502;50.678;7.172;2023-08-30T21:51:15;13.40;99.90
24382;DHT22;12502;50.678;7.172;2023-08-30T21:56:17;13.40;99.90
24382;DHT22;12502;50.678;7.172;2023-08-30T22:01:19;13.30;99.90
24382;DHT22;12502;50.678;7.172;2023-08-30T22:06:20;13.30;99.90
24382;DHT22;12502;50.678;7.172;2023-08-30T22:11:22;13.20;99.90
24382;DHT22;12502;50.678;7.172;2023-08-30T22:16:24;13.10;99.90
24382;DHT22;12502;50.678;7.172;2023-08-30T22:21:26;13.10;99.90
24382;DHT22;12502;50.678;7.172;2023-08-30T22:26:27;12.90;99.90
24382;DHT22;12502;50.678;7.172;2023-08-30T22:31:30;12.90;99.90
24382;DHT22;12502;50.678;7.172;2023-08-30T22:36:32;12.90;99.90
24382;DHT22;12502;50.678;7.172;2023-08-30T22:41:33;13.00;99.90
24382;DHT22;12502;50.678;7.172;2023-08-30T22:46:35;12.80;99.90
24382;DHT22;12502;50.678;7.172;2023-08-30T22:51:38;12.90;99.90
24382;DHT22;12502;50.678;7.172;2023-08-30T22:56:54;12.90;99.90
24382;DHT22;12502;50.678;7.172;2023-08-30T23:01:55;12.80;99.90
24382;DHT22;12502;50.678;7.172;2023-08-30T23:06:57;12.90;99.90
24382;DHT22;12502;50.678;7.172;2023-08-30T23:11:59;12.80;99.90
24382;DHT22;12502;50.678;7.172;2023-08-30T23:17:01;12.80;99.90
24382;DHT22;12502;50.678;7.172;2023-08-30T23:22:04;12.80;99.90
24382;DHT22;12502;50.678;7.172;2023-08-30T23:27:06;12.90;99.90
24382;DHT22;12502;50.678;7.172;2023-08-30T23:32:07;12.90;99.90
24382;DHT22;12502;50.678;7.172;2023-08-30T23:37:09;12.80;99.90
24382;DHT22;12502;50.678;7.172;2023-08-30T23:42:11;12.90;99.90
24382;DHT22;12502;50.678;7.172;2023-08-30T23:47:13;12.90;99.90
24382;DHT22;12502;50.678;7.172;2023-08-30T23:52:15;12.90;99.90
24382;DHT22;12502;50.678;7.172;2023-08-30T23:57:17;13.00;99.90
